Time;durP1;ratioP1;P1;durP2;ratioP2;P2;SDS_P1;SDS_P2;PMS_P1;PMS_P2;Temp;Humidity;BMP_temperature;BMP_pressure;BME280_temperature;BME280_humidity;BME280_pressure;Samples;Min_cycle;Max_cycle;Signal;HPM_P1;HPM_P2
2023/08/03 00:00:35;;;;;;;0.45;0.45;;;13.60;99.90;;;;;;4974247;28;20759;-69
2023/08/03 00:03:05;;;;;;;0.50;0.50;;;13.60;99.90;;;;;;4916786;29;20210;-69
2023/08/03 00:05:35;;;;;;;0.30;0.30;;;13.60;99.90;;;;;;4920847;29;20214;-68
2023/08/03 00:08:03;;;;;;;0.57;0.57;;;13.60;99.90;;;;;;4935885;29;20708;-69
2023/08/03 00:10:35;;;;;;;0.40;0.40;;;13.60;99.90;;;;;;4929392;28;20691;-69
2023/08/03 00:13:04;;;;;;;0.38;0.38;;;13.60;99.90;;;;;;4993570;28;20679;-69
2023/08/03 00:15:30;;;;;;;0.40;0.40;;;13.60;99.90;;;;;;4980007;28;20219;-69
2023/08/03 00:18:39;;;;;;;0.40;0.40;;;13.60;99.90;;;;;;4988917;28;20697;-69
2023/08/03 00:21:05;;;;;;;0.47;0.47;;;13.70;99.90;;;;;;4974241;28;20235;-68
2023/08/03 00:23:36;;;;;;;0.40;0.40;;;13.70;99.90;;;;;;4974290;28;20212;-68
2023/08/03 00:26:02;;;;;;;0.73;0.73;;;13.70;99.90;;;;;;4955811;28;20225;-70
2023/08/03 00:28:31;;;;;;;0.40;0.40;;;13.70;99.90;;;;;;4954635;29;20205;-70
2023/08/03 00:30:57;;;;;;;0.38;0.38;;;13.70;99.90;;;;;;4954212;28;20677;-69
2023/08/03 00:33:29;;;;;;;0.43;0.43;;;13.70;99.90;;;;;;4954061;29;20711;-72
2023/08/03 00:35:56;;;;;;;0.43;0.43;;;13.70;99.90;;;;;;4938330;29;20634;-73
2023/08/03 00:38:22;;;;;;;0.40;0.40;;;13.70;99.90;;;;;;4954186;29;20205;-72
2023/08/03 00:41:12;;;;;;;0.50;0.50;;;13.70;99.90;;;;;;4954395;28;20197;-74
2023/08/03 00:43:37;;;;;;;0.40;0.40;;;13.80;99.90;;;;;;4900363;29;20282;-73
2023/08/03 00:46:17;;;;;;;0.32;0.32;;;13.70;99.90;;;;;;4937527;29;20209;-74
2023/08/03 00:56:38;;;;;;;0.43;0.43;;;13.70;99.90;;;;;;4909225;29;20205;-70
2023/08/03 01:00:17;;;;;;;0.40;0.40;;;13.80;99.90;;;;;;4893087;29;20226;-69
2023/08/03 01:02:42;;;;;;;0.38;0.38;;;13.80;99.90;;;;;;5076472;22;20228;-73
2023/08/03 01:05:08;;;;;;;0.50;0.50;;;13.80;99.90;;;;;;5092489;28;20198;-73
2023/08/03 01:07:36;;;;;;;0.60;0.60;;;13.70;99.90;;;;;;5074158;28;20651;-73
2023/08/03 01:10:03;;;;;;;0.40;0.40;;;13.70;99.90;;;;;;5085210;28;20598;-72
2023/08/03 01:12:29;;;;;;;0.40;0.40;;;13.70;99.90;;;;;;5093906;28;20200;-73
2023/08/03 01:14:55;;;;;;;0.52;0.52;;;13.70;99.90;;;;;;5094253;28;20188;-72
2023/08/03 01:17:21;;;;;;;0.40;0.40;;;13.70;99.90;;;;;;5094253;28;20787;-72
2023/08/03 01:19:47;;;;;;;0.50;0.50;;;13.70;99.90;;;;;;5094116;28;20269;-73
2023/08/03 01:22:13;;;;;;;0.38;0.38;;;13.70;99.90;;;;;;5094376;28;20187;-72
2023/08/03 01:24:39;;;;;;;0.63;0.63;;;13.70;99.90;;;;;;5094279;28;21171;-73
2023/08/03 01:27:06;;;;;;;0.43;0.43;;;13.70;99.90;;;;;;5094059;28;20187;-73
2023/08/03 01:29:32;;;;;;;0.63;0.63;;;13.70;99.90;;;;;;5093995;28;20200;-72
2023/08/03 01:32:00;;;;;;;0.50;0.50;;;13.70;99.90;;;;;;5093317;28;20196;-72
2023/08/03 01:34:27;;;;;;;0.73;0.65;;;13.70;99.90;;;;;;5094162;28;20190;-72
2023/08/03 01:36:53;;;;;;;0.40;0.40;;;13.70;99.90;;;;;;5093887;28;20196;-73
2023/08/03 01:39:23;;;;;;;0.60;0.60;;;13.70;99.90;;;;;;5093628;28;20729;-70
2023/08/03 01:41:48;;;;;;;0.55;0.55;;;13.70;99.90;;;;;;5093831;28;20192;-70
2023/08/03 01:44:19;;;;;;;0.70;0.70;;;13.70;99.90;;;;;;5093095;28;20558;-70
2023/08/03 01:46:45;;;;;;;0.40;0.40;;;13.70;99.90;;;;;;5093896;28;20720;-70
2023/08/03 01:49:10;;;;;;;0.40;0.40;;;13.70;99.90;;;;;;5075458;28;20204;-70
2023/08/03 01:51:36;;;;;;;0.40;0.40;;;13.60;99.90;;;;;;5093489;28;20201;-71
2023/08/03 01:54:02;;;;;;;0.52;0.52;;;13.60;99.90;;;;;;5075432;28;20200;-71
2023/08/03 01:56:28;;;;;;;0.40;0.40;;;13.70;99.90;;;;;;5093584;28;20700;-70
2023/08/03 01:58:53;;;;;;;0.30;0.30;;;13.70;99.90;;;;;;5093457;28;20250;-71
2023/08/03 02:01:19;;;;;;;0.40;0.40;;;13.70;99.90;;;;;;5093136;28;20308;-70
2023/08/03 02:03:45;;;;;;;0.40;0.40;;;13.70;99.90;;;;;;5093407;28;20191;-70
2023/08/03 02:06:10;;;;;;;0.30;0.30;;;13.70;99.90;;;;;;5093256;28;20226;-70
2023/08/03 02:08:36;;;;;;;0.30;0.30;;;13.70;99.90;;;;;;5093388;28;20196;-71
2023/08/03 02:11:02;;;;;;;0.63;0.63;;;13.60;99.90;;;;;;5092957;28;20275;-71
2023/08/03 02:13:27;;;;;;;0.40;0.40;;;13.70;99.90;;;;;;5092761;28;20211;-66
2023/08/03 02:15:53;;;;;;;0.40;0.40;;;13.70;99.90;;;;;;5093471;28;20192;-67
2023/08/03 02:18:19;;;;;;;0.40;0.40;;;13.60;99.90;;;;;;5093083;28;20204;-67
2023/08/03 02:20:45;;;;;;;0.40;0.40;;;13.70;99.90;;;;;;5074818;28;20196;-67
2023/08/03 02:23:11;;;;;;;0.57;0.57;;;13.70;99.90;;;;;;5093417;28;20192;-68
2023/08/03 02:25:36;;;;;;;2.10;0.98;;;13.70;99.90;;;;;;5092960;28;20531;-66
2023/08/03 02:28:02;;;;;;;0.47;0.47;;;13.70;99.90;;;;;;5092987;28;20204;-67
2023/08/03 02:30:28;;;;;;;0.85;0.85;;;13.60;99.90;;;;;;5092967;28;20671;-68
2023/08/03 02:32:53;;;;;;;0.77;0.77;;;13.70;99.90;;;;;;5092705;28;20288;-67
2023/08/03 02:35:19;;;;;;;0.55;0.55;;;13.70;99.90;;;;;;5092651;28;20617;-66
2023/08/03 02:37:45;;;;;;;0.40;0.40;;;13.70;99.90;;;;;;5092684;28;20196;-70
2023/08/03 02:40:13;;;;;;;0.43;0.43;;;13.70;99.90;;;;;;5093286;28;20219;-72
2023/08/03 02:42:39;;;;;;;0.50;0.50;;;13.70;99.90;;;;;;5092813;28;20704;-67
2023/08/03 02:45:05;;;;;;;0.40;0.40;;;13.70;99.90;;;;;;5093070;28;20289;-66
2023/08/03 02:47:31;;;;;;;0.60;0.60;;;13.70;99.90;;;;;;5092706;28;20275;-67
2023/08/03 02:49:57;;;;;;;0.40;0.40;;;13.70;99.90;;;;;;5092130;28;20291;-67
2023/08/03 02:52:22;;;;;;;0.40;0.40;;;13.70;99.90;;;;;;5092419;28;20192;-67
2023/08/03 02:54:48;;;;;;;1.30;0.70;;;13.70;99.90;;;;;;5092594;28;20191;-67
2023/08/03 02:57:14;;;;;;;0.47;0.47;;;13.80;99.90;;;;;;5092660;28;20201;-67
2023/08/03 02:59:39;;;;;;;0.43;0.43;;;13.80;99.90;;;;;;5092405;28;20212;-67
2023/08/03 03:02:05;;;;;;;0.40;0.40;;;13.80;99.90;;;;;;5091423;28;20220;-67
2023/08/03 03:04:31;;;;;;;0.63;0.63;;;13.80;99.90;;;;;;5092421;28;20211;-66
2023/08/03 03:06:56;;;;;;;0.40;0.40;;;13.80;99.90;;;;;;5091525;28;20564;-67
2023/08/03 03:09:22;;;;;;;8.48;0.60;;;13.80;99.90;;;;;;5092420;28;20279;-66
2023/08/03 03:11:51;;;;;;;0.77;0.77;;;13.80;99.90;;;;;;5092386;28;20689;-68
2023/08/03 03:14:17;;;;;;;0.40;0.40;;;13.80;99.90;;;;;;5074193;28;20587;-67
2023/08/03 03:16:42;;;;;;;0.40;0.40;;;13.80;99.90;;;;;;5092675;28;20205;-68
2023/08/03 03:19:08;;;;;;;0.40;0.40;;;13.80;99.90;;;;;;5092551;28;20212;-67
2023/08/03 03:21:34;;;;;;;0.47;0.47;;;13.80;99.90;;;;;;5092251;28;20674;-68
2023/08/03 03:23:59;;;;;;;0.55;0.55;;;13.80;99.90;;;;;;5093121;28;20201;-72
2023/08/03 03:26:25;;;;;;;0.57;0.57;;;13.80;99.90;;;;;;5091518;28;20210;-73
2023/08/03 03:28:54;;;;;;;0.60;0.60;;;13.80;99.90;;;;;;5092873;28;20200;-73
2023/08/03 03:31:19;;;;;;;1.85;0.60;;;13.90;99.90;;;;;;5092140;28;20564;-73
2023/08/03 03:33:45;;;;;;;0.50;0.50;;;13.90;99.90;;;;;;5092652;28;20185;-73
2023/08/03 03:36:11;;;;;;;0.30;0.30;;;13.90;99.90;;;;;;5092423;28;20289;-72
2023/08/03 03:38:37;;;;;;;0.80;0.80;;;13.90;99.90;;;;;;5092024;28;20196;-73
2023/08/03 03:41:02;;;;;;;0.40;0.40;;;14.00;99.90;;;;;;5092338;28;20199;-72
2023/08/03 03:43:28;;;;;;;0.40;0.40;;;14.00;99.90;;;;;;5074038;28;20192;-73
2023/08/03 03:45:54;;;;;;;0.38;0.38;;;14.00;99.90;;;;;;5092252;28;20196;-73
2023/08/03 03:48:19;;;;;;;1.77;0.73;;;14.00;99.90;;;;;;5092159;28;20197;-72
2023/08/03 03:50:45;;;;;;;0.50;0.50;;;14.00;99.90;;;;;;5091951;28;20205;-72
2023/08/03 03:53:11;;;;;;;0.40;0.40;;;14.10;99.90;;;;;;5091907;28;20193;-73
2023/08/03 03:55:36;;;;;;;0.38;0.38;;;14.10;99.90;;;;;;5073736;28;20705;-73
2023/08/03 03:58:02;;;;;;;0.50;0.50;;;14.10;99.90;;;;;;5073916;28;20211;-72
2023/08/03 04:00:29;;;;;;;0.40;0.40;;;14.10;99.90;;;;;;5073464;28;20334;-72
2023/08/03 04:02:54;;;;;;;0.57;0.57;;;14.20;99.90;;;;;;5091796;28;20224;-73
2023/08/03 04:05:20;;;;;;;0.30;0.30;;;14.20;99.90;;;;;;5074526;28;20184;-73
2023/08/03 04:07:46;;;;;;;0.50;0.50;;;14.30;99.90;;;;;;5095769;28;20239;-71
2023/08/03 04:10:12;;;;;;;0.57;0.57;;;14.30;99.90;;;;;;5095213;28;20217;-73
2023/08/03 04:12:37;;;;;;;0.90;0.65;;;14.30;99.90;;;;;;5095511;28;20187;-73
2023/08/03 04:15:03;;;;;;;0.45;0.45;;;14.30;99.90;;;;;;5095517;28;20196;-71
2023/08/03 04:17:29;;;;;;;0.40;0.40;;;14.30;99.90;;;;;;5095193;28;20237;-72
2023/08/03 04:19:55;;;;;;;0.30;0.30;;;14.40;99.90;;;;;;5095426;28;20650;-72
2023/08/03 04:22:21;;;;;;;0.30;0.30;;;14.50;99.90;;;;;;5095160;28;20279;-72
2023/08/03 04:24:46;;;;;;;0.40;0.40;;;14.50;99.90;;;;;;5095276;28;20270;-72
2023/08/03 04:27:12;;;;;;;0.43;0.43;;;14.50;99.90;;;;;;5095002;28;20199;-72
2023/08/03 04:29:38;;;;;;;0.40;0.40;;;14.60;99.90;;;;;;5095249;28;20738;-73
2023/08/03 04:32:06;;;;;;;0.40;0.40;;;14.60;99.90;;;;;;5095294;28;20236;-72
2023/08/03 04:34:32;;;;;;;0.35;0.35;;;14.60;99.90;;;;;;5076728;28;20238;-67
2023/08/03 04:36:58;;;;;;;0.40;0.40;;;14.70;99.90;;;;;;5095046;28;20216;-68
2023/08/03 04:39:24;;;;;;;0.57;0.57;;;14.70;99.90;;;;;;5094614;28;20693;-68
2023/08/03 04:41:50;;;;;;;0.50;0.50;;;14.80;99.90;;;;;;5095150;28;20191;-68
2023/08/03 04:44:15;;;;;;;1.17;0.57;;;14.80;99.90;;;;;;5094521;28;20241;-67
2023/08/03 04:46:41;;;;;;;0.40;0.40;;;14.80;99.90;;;;;;5094806;28;20188;-68
2023/08/03 04:49:10;;;;;;;0.50;0.50;;;14.80;99.90;;;;;;5094828;28;20222;-67
2023/08/03 04:51:36;;;;;;;0.40;0.40;;;14.90;99.90;;;;;;5094646;28;20188;-67
2023/08/03 04:54:01;;;;;;;0.30;0.30;;;14.90;99.90;;;;;;5094670;28;20564;-67
2023/08/03 04:56:27;;;;;;;0.40;0.40;;;14.90;99.90;;;;;;5094622;28;20587;-67
2023/08/03 04:58:53;;;;;;;0.40;0.40;;;14.90;99.90;;;;;;5094589;28;20207;-68
2023/08/03 05:01:18;;;;;;;0.50;0.50;;;14.90;99.90;;;;;;5094162;28;20220;-69
2023/08/03 05:03:45;;;;;;;0.30;0.30;;;14.90;99.90;;;;;;5094517;28;20185;-68
2023/08/03 05:06:11;;;;;;;0.65;0.65;;;14.90;99.90;;;;;;5094333;28;20310;-68
2023/08/03 05:08:36;;;;;;;0.40;0.40;;;14.90;99.90;;;;;;5094733;28;20275;-67
2023/08/03 05:11:02;;;;;;;0.35;0.35;;;15.00;99.90;;;;;;5094256;28;20188;-67
2023/08/03 05:13:28;;;;;;;0.40;0.40;;;15.00;99.90;;;;;;5094241;28;20198;-68
2023/08/03 05:15:53;;;;;;;0.30;0.30;;;15.00;99.90;;;;;;5094610;28;20262;-67
2023/08/03 05:18:19;;;;;;;0.40;0.40;;;15.10;99.90;;;;;;5092934;28;20296;-69
2023/08/03 05:20:45;;;;;;;0.98;0.88;;;15.10;99.90;;;;;;5094447;28;20294;-70
2023/08/03 05:23:12;;;;;;;0.30;0.30;;;15.10;99.90;;;;;;5093515;28;20203;-69
2023/08/03 05:25:38;;;;;;;0.40;0.40;;;15.10;99.90;;;;;;5094095;28;20229;-67
2023/08/03 05:28:04;;;;;;;1.45;1.00;;;15.20;99.90;;;;;;5094095;28;20200;-68
2023/08/03 05:30:30;;;;;;;0.40;0.40;;;15.20;99.90;;;;;;5093902;28;20309;-67
2023/08/03 05:32:55;;;;;;;0.40;0.40;;;15.30;99.90;;;;;;5094204;28;20707;-68
2023/08/03 05:35:21;;;;;;;0.30;0.30;;;15.30;99.90;;;;;;5075549;28;20232;-68
2023/08/03 05:37:47;;;;;;;0.40;0.40;;;15.40;99.90;;;;;;5093805;28;20275;-68
2023/08/03 05:40:13;;;;;;;0.35;0.35;;;15.50;99.90;;;;;;5093771;28;20199;-68
2023/08/03 05:42:41;;;;;;;5.38;1.85;;;15.50;99.90;;;;;;5093916;28;20227;-72
2023/08/03 05:45:33;;;;;;;0.50;0.50;;;15.60;99.90;;;;;;5093872;28;20703;-72
2023/08/03 05:47:59;;;;;;;1.05;0.68;;;15.70;99.90;;;;;;5093712;28;20188;-72
2023/08/03 05:50:25;;;;;;;0.43;0.43;;;15.70;99.90;;;;;;5093348;28;20196;-72
2023/08/03 05:52:54;;;;;;;0.50;0.50;;;15.80;99.90;;;;;;5093669;28;20241;-72
2023/08/03 05:55:20;;;;;;;0.40;0.40;;;15.80;99.90;;;;;;5093125;28;20231;-72
2023/08/03 05:57:45;;;;;;;5.15;1.75;;;15.90;99.90;;;;;;5075132;28;20696;-72
2023/08/03 06:00:23;;;;;;;0.40;0.40;;;15.90;99.90;;;;;;5093488;28;20192;-72
2023/08/03 06:02:49;;;;;;;0.60;0.60;;;15.90;99.90;;;;;;5093240;28;20219;-72
2023/08/03 06:05:43;;;;;;;0.32;0.32;;;16.00;99.90;;;;;;5075236;28;20278;-72
2023/08/03 06:08:29;;;;;;;0.30;0.30;;;16.20;99.90;;;;;;5075121;28;20203;-72
2023/08/03 06:10:56;;;;;;;1.00;0.90;;;16.30;99.90;;;;;;5092871;28;20211;-71
2023/08/03 06:13:40;;;;;;;0.30;0.30;;;16.40;99.90;;;;;;5092900;28;20287;-72
2023/08/03 06:16:09;;;;;;;0.38;0.38;;;16.60;99.90;;;;;;5093118;28;20715;-71
2023/08/03 06:18:49;;;;;;;0.73;0.73;;;16.90;99.90;;;;;;5093121;28;20204;-71
2023/08/03 06:21:16;;;;;;;0.55;0.55;;;17.10;99.90;;;;;;5074800;28;20219;-72
2023/08/03 06:23:54;;;;;;;0.95;0.95;;;17.40;99.90;;;;;;5074756;28;20195;-71
2023/08/03 06:26:21;;;;;;;0.73;0.73;;;17.70;99.90;;;;;;5092936;28;20647;-70
2023/08/03 06:28:49;;;;;;;0.50;0.50;;;18.00;99.90;;;;;;5092625;28;20275;-71
2023/08/03 06:31:17;;;;;;;0.30;0.30;;;18.00;99.90;;;;;;5074932;28;20200;-71
2023/08/03 06:33:44;;;;;;;0.43;0.43;;;17.90;99.90;;;;;;5092882;28;20203;-71
2023/08/03 06:36:18;;;;;;;0.32;0.32;;;17.90;99.90;;;;;;5092965;28;20622;-71
2023/08/03 06:38:44;;;;;;;0.47;0.47;;;18.00;99.90;;;;;;5092898;28;20222;-71
2023/08/03 06:41:10;;;;;;;0.55;0.55;;;17.90;99.90;;;;;;5092256;28;20191;-74
2023/08/03 06:43:36;;;;;;;0.70;0.50;;;18.00;99.90;;;;;;5092670;28;20578;-74
2023/08/03 06:46:02;;;;;;;0.40;0.40;;;18.20;99.90;;;;;;5092823;28;20294;-73
2023/08/03 06:48:28;;;;;;;0.40;0.40;;;18.40;99.90;;;;;;5092510;28;20196;-74
2023/08/03 06:50:55;;;;;;;0.50;0.50;;;18.70;99.90;;;;;;5092118;28;20223;-75
2023/08/03 06:53:21;;;;;;;0.73;0.40;;;18.90;99.90;;;;;;5092493;28;20223;-74
2023/08/03 06:55:48;;;;;;;0.30;0.30;;;19.10;99.90;;;;;;5092630;28;20246;-74
2023/08/03 06:58:15;;;;;;;0.35;0.35;;;19.10;99.90;;;;;;5092289;28;20196;-74
2023/08/03 07:00:41;;;;;;;0.30;0.30;;;18.80;99.90;;;;;;5092316;28;20264;-74
2023/08/03 07:03:07;;;;;;;0.22;0.22;;;18.50;99.90;;;;;;5092699;28;20199;-74
2023/08/03 07:05:33;;;;;;;0.47;0.47;;;18.50;99.90;;;;;;5092243;28;20684;-74
2023/08/03 07:07:59;;;;;;;0.40;0.40;;;18.40;99.90;;;;;;5074427;28;20204;-74
2023/08/03 07:10:26;;;;;;;0.32;0.32;;;18.20;99.90;;;;;;5092332;28;20199;-74
2023/08/03 07:12:52;;;;;;;0.40;0.40;;;18.20;99.90;;;;;;5092547;28;20192;-74
2023/08/03 07:15:18;;;;;;;0.40;0.40;;;18.30;99.90;;;;;;5092281;28;20840;-74
2023/08/03 07:17:44;;;;;;;0.20;0.20;;;18.30;99.90;;;;;;5074095;28;20288;-74
2023/08/03 07:20:13;;;;;;;0.20;0.20;;;18.30;99.90;;;;;;5092015;28;20199;-74
2023/08/03 07:22:39;;;;;;;6.60;0.95;;;18.50;99.90;;;;;;5092248;28;20192;-74
2023/08/03 07:25:06;;;;;;;0.30;0.30;;;18.60;99.90;;;;;;5092349;28;20192;-74
2023/08/03 07:27:32;;;;;;;0.30;0.30;;;18.50;99.90;;;;;;5092231;28;20237;-74
2023/08/03 07:29:58;;;;;;;0.30;0.30;;;18.60;99.90;;;;;;5074168;28;20196;-74
2023/08/03 07:32:24;;;;;;;0.98;0.40;;;18.70;99.90;;;;;;5092177;28;20196;-74
2023/08/03 07:34:50;;;;;;;0.40;0.40;;;18.80;99.90;;;;;;5073974;28;20227;-74
2023/08/03 07:37:16;;;;;;;0.30;0.30;;;18.80;99.90;;;;;;5092195;28;20675;-74
2023/08/03 07:39:42;;;;;;;0.30;0.30;;;18.80;99.90;;;;;;5092210;28;20674;-74
2023/08/03 07:42:10;;;;;;;0.28;0.25;;;18.70;99.90;;;;;;5095267;28;20558;-74
2023/08/03 07:44:36;;;;;;;0.30;0.30;;;18.80;99.90;;;;;;5096034;28;20184;-74
2023/08/03 07:47:02;;;;;;;0.30;0.30;;;18.80;99.90;;;;;;5096110;28;20204;-74
2023/08/03 07:49:28;;;;;;;0.40;0.40;;;19.00;99.90;;;;;;5095620;28;20677;-74
2023/08/03 07:51:54;;;;;;;0.63;0.30;;;19.10;99.90;;;;;;5077803;28;20239;-74
2023/08/03 07:54:19;;;;;;;0.20;0.20;;;19.10;99.90;;;;;;5095878;28;20747;-74
2023/08/03 07:56:45;;;;;;;0.30;0.30;;;19.10;99.90;;;;;;5096004;28;20250;-75
2023/08/03 07:59:12;;;;;;;0.40;0.40;;;19.20;99.90;;;;;;5095089;28;20337;-74
2023/08/03 08:01:39;;;;;;;0.73;0.40;;;19.20;99.90;;;;;;5077229;28;20231;-74
2023/08/03 08:04:04;;;;;;;0.40;0.40;;;19.20;99.90;;;;;;5096078;28;20596;-72
2023/08/03 08:06:30;;;;;;;0.57;0.57;;;19.40;99.90;;;;;;5095418;28;20196;-72
2023/08/03 08:08:56;;;;;;;0.20;0.20;;;19.30;99.90;;;;;;5095583;28;20283;-72
2023/08/03 08:11:22;;;;;;;0.45;0.45;;;19.60;99.90;;;;;;5095506;28;20271;-73
2023/08/03 08:13:47;;;;;;;0.50;0.50;;;19.90;99.90;;;;;;5095470;28;20249;-73
2023/08/03 08:16:17;;;;;;;0.25;0.25;;;20.10;99.90;;;;;;5095369;28;20192;-72
2023/08/03 08:18:43;;;;;;;2.47;0.52;;;20.20;99.90;;;;;;5095579;28;20200;-72
2023/08/03 08:21:12;;;;;;;0.85;0.75;;;20.20;99.90;;;;;;5077314;28;20694;-73
2023/08/03 08:23:39;;;;;;;0.20;0.20;;;20.50;99.90;;;;;;5095214;28;20228;-73
2023/08/03 08:26:11;;;;;;;0.68;0.68;;;20.70;99.90;;;;;;5095395;28;20203;-73
2023/08/03 08:28:37;;;;;;;0.40;0.40;;;20.90;99.90;;;;;;5095077;28;20662;-74
2023/08/03 08:31:02;;;;;;;0.40;0.40;;;20.80;99.90;;;;;;5095182;28;20277;-72
2023/08/03 08:33:28;;;;;;;0.63;0.52;;;21.00;99.90;;;;;;5076841;28;20220;-72
2023/08/03 08:35:54;;;;;;;0.25;0.25;;;21.20;99.90;;;;;;5095022;28;20188;-73
2023/08/03 08:38:19;;;;;;;0.52;0.52;;;21.40;99.90;;;;;;5094733;28;20200;-73
2023/08/03 08:40:45;;;;;;;0.20;0.20;;;21.70;99.90;;;;;;5095228;28;20195;-73
2023/08/03 08:43:11;;;;;;;0.32;0.32;;;21.90;99.90;;;;;;5094714;28;20702;-73
2023/08/03 08:45:38;;;;;;;0.25;0.25;;;22.10;99.90;;;;;;5094561;28;20191;-73
2023/08/03 08:48:05;;;;;;;2.20;0.85;;;22.00;99.90;;;;;;5095016;28;20199;-73
2023/08/03 08:50:32;;;;;;;0.60;0.60;;;22.30;99.90;;;;;;5076230;28;20287;-73
2023/08/03 08:53:00;;;;;;;0.30;0.30;;;22.10;99.90;;;;;;5094285;28;20662;-73
2023/08/03 08:55:28;;;;;;;0.30;0.30;;;21.60;99.90;;;;;;5094481;28;20188;-73
2023/08/03 08:57:55;;;;;;;0.35;0.35;;;21.40;99.90;;;;;;5094717;28;20196;-73
2023/08/03 09:00:24;;;;;;;0.20;0.20;;;21.40;99.90;;;;;;5094461;28;20193;-72
2023/08/03 09:02:59;;;;;;;0.40;0.40;;;21.60;99.90;;;;;;5094672;28;20692;-73
2023/08/03 09:05:26;;;;;;;0.22;0.22;;;21.90;99.90;;;;;;5094213;28;20586;-73
2023/08/03 09:08:03;;;;;;;0.38;0.38;;;22.00;99.90;;;;;;5076234;28;20200;-74
2023/08/03 09:10:30;;;;;;;0.30;0.30;;;21.60;99.90;;;;;;5094260;28;20196;-74
2023/08/03 09:12:58;;;;;;;0.20;0.20;;;21.50;99.90;;;;;;5094681;28;20681;-78
2023/08/03 09:15:40;;;;;;;0.20;0.20;;;21.60;99.90;;;;;;5094238;28;20237;-77
2023/08/03 09:18:07;;;;;;;0.70;0.57;;;21.90;99.90;;;;;;5094105;28;20287;-77
2023/08/03 09:20:34;;;;;;;0.20;0.20;;;22.10;99.90;;;;;;5094258;28;20188;-76
2023/08/03 09:23:01;;;;;;;0.35;0.35;;;22.00;99.90;;;;;;5094581;28;20193;-78
2023/08/03 09:25:27;;;;;;;0.20;0.20;;;21.50;99.90;;;;;;5093816;28;20267;-77
2023/08/03 09:27:55;;;;;;;0.30;0.30;;;21.70;99.90;;;;;;5094215;28;20193;-76
2023/08/03 09:30:22;;;;;;;1.25;0.75;;;22.20;99.90;;;;;;5093170;28;20655;-76
2023/08/03 09:32:48;;;;;;;0.30;0.30;;;22.70;99.90;;;;;;5093783;28;20600;-73
2023/08/03 09:35:18;;;;;;;0.43;0.43;;;23.20;99.90;;;;;;5093898;28;20228;-76
2023/08/03 09:37:45;;;;;;;0.50;0.38;;;23.60;99.90;;;;;;5093882;28;20192;-77
2023/08/03 09:40:11;;;;;;;0.32;0.32;;;23.80;99.90;;;;;;5075619;28;20240;-76
2023/08/03 09:42:58;;;;;;;0.17;0.17;;;24.00;99.90;;;;;;5093611;28;20702;-77
2023/08/03 09:45:27;;;;;;;6.15;0.50;;;24.10;99.90;;;;;;5093606;28;20190;-77
2023/08/03 09:47:56;;;;;;;0.20;0.20;;;24.00;99.90;;;;;;5075613;28;20659;-78
2023/08/03 09:50:22;;;;;;;0.20;0.20;;;23.40;99.90;;;;;;5093444;28;20313;-77
2023/08/03 09:52:52;;;;;;;0.57;0.47;;;23.00;99.90;;;;;;5093651;28;20184;-77
2023/08/03 09:55:31;;;;;;;0.20;0.20;;;23.00;99.90;;;;;;5093539;28;20241;-76
2023/08/03 09:58:01;;;;;;;1.00;0.30;;;22.90;99.90;;;;;;5093715;28;20606;-77
2023/08/03 10:00:28;;;;;;;0.43;0.28;;;23.00;99.90;;;;;;5093336;28;20650;-77
2023/08/03 10:03:13;;;;;;;0.30;0.30;;;23.10;99.90;;;;;;5093195;28;20230;-78
2023/08/03 10:06:06;;;;;;;0.20;0.20;;;23.20;99.90;;;;;;5086596;28;20197;-77
2023/08/03 10:08:46;;;;;;;0.20;0.20;;;22.70;99.90;;;;;;5067150;28;20290;-78
2023/08/03 10:11:12;;;;;;;0.30;0.30;;;22.40;99.90;;;;;;5073037;28;20199;-77
2023/08/03 10:13:42;;;;;;;0.10;0.10;;;22.40;99.90;;;;;;5072831;28;20683;-77
2023/08/03 10:16:08;;;;;;;0.40;0.40;;;22.40;99.90;;;;;;5072838;28;20251;-77
2023/08/03 10:18:37;;;;;;;0.22;0.22;;;22.10;99.90;;;;;;5072624;28;20197;-77
2023/08/03 10:21:04;;;;;;;0.20;0.20;;;21.80;99.90;;;;;;5072901;28;20796;-77
2023/08/03 10:23:30;;;;;;;0.52;0.52;;;21.60;99.90;;;;;;5072625;28;20185;-75
2023/08/03 10:26:01;;;;;;;0.35;0.35;;;21.50;99.90;;;;;;5071791;28;20561;-75
2023/08/03 10:28:38;;;;;;;0.75;0.50;;;21.90;99.90;;;;;;5072550;28;20749;-75
2023/08/03 10:31:15;;;;;;;0.30;0.30;;;22.30;99.90;;;;;;5072899;28;20417;-75
2023/08/03 10:33:50;;;;;;;0.20;0.20;;;22.60;99.90;;;;;;5072614;28;20196;-76
2023/08/03 10:36:38;;;;;;;1.05;0.65;;;23.00;99.90;;;;;;5083327;28;20678;-76
2023/08/03 10:39:15;;;;;;;1.48;0.35;;;22.60;99.90;;;;;;5072863;28;20232;-75
2023/08/03 10:41:46;;;;;;;0.30;0.30;;;22.00;99.90;;;;;;5073154;28;20200;-76
2023/08/03 10:44:12;;;;;;;0.47;0.35;;;21.70;99.90;;;;;;5068129;28;20598;-76
2023/08/03 10:46:41;;;;;;;0.20;0.20;;;21.50;99.90;;;;;;5092501;28;20187;-76
2023/08/03 10:49:27;;;;;;;0.40;0.40;;;21.40;99.90;;;;;;5092756;28;20200;-76
2023/08/03 10:52:26;;;;;;;0.22;0.22;;;21.30;99.90;;;;;;5071137;28;20571;-75
2023/08/03 10:54:52;;;;;;;0.30;0.30;;;21.40;99.90;;;;;;5072790;28;20663;-75
2023/08/03 10:57:26;;;;;;;0.70;0.70;;;21.60;99.90;;;;;;5086832;28;20245;-76
2023/08/03 10:59:54;;;;;;;0.20;0.20;;;21.80;99.90;;;;;;5092729;28;20576;-75
2023/08/03 11:02:28;;;;;;;0.38;0.38;;;22.20;99.90;;;;;;5092106;28;20764;-75
2023/08/03 11:04:59;;;;;;;0.45;0.45;;;22.40;99.90;;;;;;5093045;28;20341;-75
2023/08/03 11:07:32;;;;;;;0.20;0.20;;;22.30;99.90;;;;;;5092344;28;20192;-75
2023/08/03 11:09:59;;;;;;;0.20;0.20;;;22.50;99.90;;;;;;5092612;28;20199;-76
2023/08/03 11:12:27;;;;;;;0.30;0.30;;;22.60;99.90;;;;;;5092695;28;20204;-75
2023/08/03 11:14:54;;;;;;;0.28;0.28;;;22.50;99.90;;;;;;5092563;28;20196;-76
2023/08/03 11:17:25;;;;;;;0.73;0.50;;;22.40;99.90;;;;;;5095993;28;20196;-75
2023/08/03 11:19:52;;;;;;;0.30;0.30;;;22.50;99.90;;;;;;5096820;28;20204;-75
2023/08/03 11:22:21;;;;;;;0.20;0.20;;;22.70;99.90;;;;;;5096556;28;20226;-75
2023/08/03 11:24:57;;;;;;;0.20;0.20;;;22.90;99.90;;;;;;5096191;28;20279;-76
2023/08/03 11:27:23;;;;;;;0.20;0.20;;;22.90;99.90;;;;;;5078018;28;20207;-76
2023/08/03 11:29:51;;;;;;;0.20;0.20;;;22.70;99.90;;;;;;5096992;28;20188;-76
2023/08/03 11:32:25;;;;;;;0.20;0.20;;;22.80;99.90;;;;;;5096493;28;20204;-76
2023/08/03 11:35:04;;;;;;;0.20;0.20;;;22.70;99.90;;;;;;5096646;28;20192;-73
2023/08/03 11:37:31;;;;;;;0.30;0.30;;;22.70;99.90;;;;;;5096136;28;20191;-73
2023/08/03 11:39:58;;;;;;;0.20;0.20;;;22.70;99.90;;;;;;5077875;28;20207;-74
2023/08/03 11:42:25;;;;;;;0.45;0.45;;;22.70;99.90;;;;;;5077821;28;20211;-73
2023/08/03 11:44:50;;;;;;;0.43;0.43;;;22.60;99.90;;;;;;5096100;28;20287;-73
2023/08/03 11:47:16;;;;;;;0.55;0.55;;;22.30;99.90;;;;;;5096161;28;20623;-73
2023/08/03 11:49:42;;;;;;;2.15;0.65;;;21.90;99.90;;;;;;5095693;28;20260;-73
2023/08/03 11:52:20;;;;;;;0.22;0.22;;;21.70;99.90;;;;;;5095683;28;20755;-73
2023/08/03 11:54:46;;;;;;;0.32;0.32;;;21.70;99.90;;;;;;5095771;28;20207;-73
2023/08/03 11:59:56;;;;;;;1.27;0.35;;;21.80;99.90;;;;;;5095869;28;20207;-73
2023/08/03 12:02:41;;;;;;;0.20;0.20;;;22.20;99.90;;;;;;5095181;28;20691;-74
2023/08/03 12:05:07;;;;;;;0.20;0.20;;;22.60;99.90;;;;;;5095476;28;20185;-73
2023/08/03 12:07:33;;;;;;;0.32;0.28;;;22.70;99.90;;;;;;5077275;28;20565;-73
2023/08/03 12:10:00;;;;;;;0.30;0.30;;;22.80;99.90;;;;;;5095742;28;20196;-73
2023/08/03 12:12:25;;;;;;;0.57;0.57;;;22.90;99.90;;;;;;5095391;28;20193;-73
2023/08/03 12:14:51;;;;;;;0.28;0.28;;;23.10;99.90;;;;;;5095549;28;20673;-75
2023/08/03 12:17:17;;;;;;;0.20;0.20;;;22.90;99.90;;;;;;5095313;28;20552;-74
2023/08/03 12:19:43;;;;;;;0.52;0.52;;;22.50;99.90;;;;;;5077245;28;20261;-73
2023/08/03 12:22:08;;;;;;;0.20;0.20;;;22.40;99.90;;;;;;5077271;28;20195;-73
2023/08/03 12:24:34;;;;;;;0.30;0.30;;;22.30;99.90;;;;;;5094704;28;20241;-73
2023/08/03 12:27:03;;;;;;;0.20;0.20;;;22.20;99.90;;;;;;5076640;28;20188;-73
2023/08/03 12:29:29;;;;;;;0.43;0.43;;;22.10;99.90;;;;;;5094745;28;20208;-74
2023/08/03 12:31:55;;;;;;;0.15;0.15;;;22.00;99.90;;;;;;5095279;28;20207;-73
2023/08/03 12:34:21;;;;;;;0.20;0.20;;;22.00;99.90;;;;;;5094932;28;20192;-73
2023/08/03 12:36:46;;;;;;;0.20;0.20;;;22.10;99.90;;;;;;5095122;28;20254;-73
2023/08/03 12:39:12;;;;;;;0.65;0.28;;;22.20;99.90;;;;;;5094968;28;20207;-73
2023/08/03 12:41:38;;;;;;;0.28;0.28;;;22.00;99.90;;;;;;5094967;28;20192;-74
2023/08/03 12:44:04;;;;;;;0.32;0.32;;;22.20;99.90;;;;;;5077169;28;20198;-77
2023/08/03 12:46:30;;;;;;;0.20;0.20;;;22.40;99.90;;;;;;5094627;28;20180;-76
2023/08/03 12:48:58;;;;;;;0.40;0.40;;;22.50;99.90;;;;;;5095106;28;20192;-77
2023/08/03 12:51:24;;;;;;;0.32;0.32;;;22.50;99.90;;;;;;5094525;28;20631;-76
2023/08/03 12:53:49;;;;;;;0.30;0.30;;;22.30;99.90;;;;;;5094524;28;20192;-76
2023/08/03 12:56:16;;;;;;;0.20;0.20;;;22.20;99.90;;;;;;5076784;28;20195;-75
2023/08/03 12:58:43;;;;;;;1.00;0.30;;;22.10;99.90;;;;;;5094538;28;20208;-76
2023/08/03 13:01:12;;;;;;;0.47;0.47;;;22.00;99.90;;;;;;5072866;28;20228;-76
2023/08/03 13:03:38;;;;;;;0.30;0.30;;;22.00;99.90;;;;;;5074132;28;20208;-77